sensor_id;sensor_type;location;lat;lon;timestamp;pressure;altitude;pressure_sealevel;temperature;humidity
36258;BME280;22294;52.044;4.582;2023-04-08T00:02:23;77568.78;;;-144.37;100.00
36258;BME280;22294;52.044;4.582;2023-04-08T00:04:49;77572.88;;;-144.37;100.00
36258;BME280;22294;52.044;4.582;2023-04-08T00:07:15;77572.88;;;-144.37;100.00
36258;BME280;22294;52.044;4.582;2023-04-08T00:09:40;77564.69;;;-144.37;100.00
36258;BME280;22294;52.044;4.582;2023-04-08T00:12:05;77568.78;;;-144.37;100.00
36258;BME280;22294;52.044;4.582;2023-04-08T00:14:31;77568.78;;;-144.37;100.00
36258;BME280;22294;52.044;4.582;2023-04-08T00:16:56;77568.78;;;-144.37;100.00
36258;BME280;22294;52.044;4.582;2023-04-08T00:19:22;77568.78;;;-144.37;100.00
36258;BME280;22294;52.044;4.582;2023-04-08T00:21:49;77562.63;;;-144.37;100.00
36258;BME280;22294;52.044;4.582;2023-04-08T00:24:15;77570.81;;;-144.37;100.00
36258;BME280;22294;52.044;4.582;2023-04-08T00:26:40;77570.81;;;-144.37;100.00
36258;BME280;22294;52.044;4.582;2023-04-08T00:29:05;77568.78;;;-144.37;100.00
36258;BME280;22294;52.044;4.582;2023-04-08T00:31:32;77564.69;;;-144.37;100.00
36258;BME280;22294;52.044;4.582;2023-04-08T00:33:57;77568.78;;;-144.37;100.00
36258;BME280;22294;52.044;4.582;2023-04-08T00:36:23;77572.88;;;-144.37;100.00
36258;BME280;22294;52.044;4.582;2023-04-08T00:38:48;77572.88;;;-144.37;100.00
36258;BME280;22294;52.044;4.582;2023-04-08T00:41:13;77593.31;;;-144.37;100.00
36258;BME280;22294;52.044;4.582;2023-04-08T00:43:40;77585.13;;;-144.37;100.00
36258;BME280;22294;52.044;4.582;2023-04-08T00:46:05;77583.09;;;-144.37;100.00
36258;BME280;22294;52.044;4.582;2023-04-08T00:48:30;77589.22;;;-144.37;100.00
36258;BME280;22294;52.044;4.582;2023-04-08T00:50:56;77605.59;;;-144.37;100.00
36258;BME280;22294;52.044;4.582;2023-04-08T00:53:21;77615.84;;;-144.37;100.00
36258;BME280;22294;52.044;4.582;2023-04-08T00:55:46;77613.78;;;-144.37;100.00
36258;BME280;22294;52.044;4.582;2023-04-08T00:58:12;77624.00;;;-144.37;100.00
36258;BME280;22294;52.044;4.582;2023-04-08T01:00:39;77617.88;;;-144.37;100.00
36258;BME280;22294;52.044;4.582;2023-04-08T01:03:17;77619.94;;;-144.37;100.00
36258;BME280;22294;52.044;4.582;2023-04-08T01:08:11;77628.09;;;-144.37;100.00
36258;BME280;22294;52.044;4.582;2023-04-08T01:10:38;77630.16;;;-144.37;100.00
36258;BME280;22294;52.044;4.582;2023-04-08T01:13:09;77619.94;;;-144.37;100.00
36258;BME280;22294;52.044;4.582;2023-04-08T01:15:36;77615.84;;;-144.37;100.00
36258;BME280;22294;52.044;4.582;2023-04-08T01:18:05;77609.69;;;-144.37;100.00
36258;BME280;22294;52.044;4.582;2023-04-08T01:20:30;77615.84;;;-144.37;100.00
36258;BME280;22294;52.044;4.582;2023-04-08T01:25:34;77613.78;;;-144.37;100.00
36258;BME280;22294;52.044;4.582;2023-04-08T01:28:00;77613.78;;;-144.37;100.00
36258;BME280;22294;52.044;4.582;2023-04-08T01:30:27;77611.75;;;-144.37;100.00
36258;BME280;22294;52.044;4.582;2023-04-08T01:32:54;77617.88;;;-144.37;100.00
36258;BME280;22294;52.044;4.582;2023-04-08T01:35:20;77617.88;;;-144.37;100.00
36258;BME280;22294;52.044;4.582;2023-04-08T01:37:46;77615.84;;;-144.37;100.00
36258;BME280;22294;52.044;4.582;2023-04-08T01:40:13;77613.78;;;-144.37;100.00
36258;BME280;22294;52.044;4.582;2023-04-08T01:42:39;77611.75;;;-144.37;100.00
36258;BME280;22294;52.044;4.582;2023-04-08T01:45:05;77611.75;;;-144.37;100.00
36258;BME280;22294;52.044;4.582;2023-04-08T01:47:32;77619.94;;;-144.37;100.00
36258;BME280;22294;52.044;4.582;2023-04-08T01:49:58;77624.00;;;-144.37;100.00
36258;BME280;22294;52.044;4.582;2023-04-08T01:52:25;77617.88;;;-144.37;100.00
36258;BME280;22294;52.044;4.582;2023-04-08T01:54:52;77613.78;;;-144.37;100.00
36258;BME280;22294;52.044;4.582;2023-04-08T01:57:21;77619.94;;;-144.37;100.00
36258;BME280;22294;52.044;4.582;2023-04-08T01:59:49;77621.97;;;-144.37;100.00
36258;BME280;22294;52.044;4.582;2023-04-08T02:02:15;77628.09;;;-144.37;100.00
36258;BME280;22294;52.044;4.582;2023-04-08T02:04:42;77632.19;;;-144.37;100.00
36258;BME280;22294;52.044;4.582;2023-04-08T02:07:08;77638.34;;;-144.37;100.00
36258;BME280;22294;52.044;4.582;2023-04-08T02:09:33;77634.25;;;-144.37;100.00
36258;BME280;22294;52.044;4.582;2023-04-08T02:11:58;77636.28;;;-144.37;100.00
36258;BME280;22294;52.044;4.582;2023-04-08T02:14:23;77634.25;;;-144.37;100.00
36258;BME280;22294;52.044;4.582;2023-04-08T02:16:54;77634.25;;;-144.37;100.00
36258;BME280;22294;52.044;4.582;2023-04-08T02:19:24;77642.44;;;-144.37;100.00
36258;BME280;22294;52.044;4.582;2023-04-08T02:21:51;77638.34;;;-144.37;100.00
36258;BME280;22294;52.044;4.582;2023-04-08T02:24:19;77628.09;;;-144.37;100.00
36258;BME280;22294;52.044;4.582;2023-04-08T02:26:46;77624.00;;;-144.37;100.00
36258;BME280;22294;52.044;4.582;2023-04-08T02:29:13;77621.97;;;-144.37;100.00
36258;BME280;22294;52.044;4.582;2023-04-08T02:31:40;77624.00;;;-144.37;100.00
36258;BME280;22294;52.044;4.582;2023-04-08T02:34:05;77640.38;;;-144.37;100.00
36258;BME280;22294;52.044;4.582;2023-04-08T02:36:32;77650.63;;;-144.37;100.00
36258;BME280;22294;52.044;4.582;2023-04-08T02:38:58;77662.88;;;-144.37;100.00
36258;BME280;22294;52.044;4.582;2023-04-08T02:41:27;77679.25;;;-144.37;100.00
36258;BME280;22294;52.044;4.582;2023-04-08T02:43:52;77671.06;;;-144.37;100.00
36258;BME280;22294;52.044;4.582;2023-04-08T02:46:19;77677.22;;;-144.37;100.00
36258;BME280;22294;52.044;4.582;2023-04-08T02:48:44;77673.13;;;-144.37;100.00
36258;BME280;22294;52.044;4.582;2023-04-08T02:51:10;77666.97;;;-144.37;100.00
36258;BME280;22294;52.044;4.582;2023-04-08T02:53:35;77664.94;;;-144.37;100.00
36258;BME280;22294;52.044;4.582;2023-04-08T02:56:00;77662.88;;;-144.37;100.00
36258;BME280;22294;52.044;4.582;2023-04-08T02:58:25;77679.25;;;-144.37;100.00
36258;BME280;22294;52.044;4.582;2023-04-08T03:00:51;77677.22;;;-144.37;100.00
36258;BME280;22294;52.044;4.582;2023-04-08T03:03:16;77693.56;;;-144.37;100.00
36258;BME280;22294;52.044;4.582;2023-04-08T03:05:41;77697.66;;;-144.37;100.00
36258;BME280;22294;52.044;4.582;2023-04-08T03:08:06;77699.72;;;-144.37;100.00
36258;BME280;22294;52.044;4.582;2023-04-08T03:10:32;77714.03;;;-144.37;100.00
36258;BME280;22294;52.044;4.582;2023-04-08T03:12:57;77714.03;;;-144.37;100.00
36258;BME280;22294;52.044;4.582;2023-04-08T03:15:22;77707.91;;;-144.37;100.00
36258;BME280;22294;52.044;4.582;2023-04-08T03:17:47;77709.94;;;-144.37;100.00
36258;BME280;22294;52.044;4.582;2023-04-08T03:20:14;77724.25;;;-144.37;100.00
36258;BME280;22294;52.044;4.582;2023-04-08T03:22:39;77730.41;;;-144.37;100.00
36258;BME280;22294;52.044;4.582;2023-04-08T03:25:04;77722.22;;;-144.37;100.00
36258;BME280;22294;52.044;4.582;2023-04-08T03:27:30;77738.59;;;-144.37;100.00
36258;BME280;22294;52.044;4.582;2023-04-08T03:29:55;77752.91;;;-144.37;100.00
36258;BME280;22294;52.044;4.582;2023-04-08T03:32:21;77763.13;;;-144.37;100.00
36258;BME280;22294;52.044;4.582;2023-04-08T03:34:47;77773.38;;;-144.37;100.00
36258;BME280;22294;52.044;4.582;2023-04-08T03:37:15;77781.56;;;-144.37;100.00
36258;BME280;22294;52.044;4.582;2023-04-08T03:39:40;77785.66;;;-144.37;100.00
36258;BME280;22294;52.044;4.582;2023-04-08T03:42:05;77777.47;;;-144.37;100.00
36258;BME280;22294;52.044;4.582;2023-04-08T03:44:30;77779.50;;;-144.37;100.00
36258;BME280;22294;52.044;4.582;2023-04-08T03:46:57;77767.22;;;-144.37;100.00
36258;BME280;22294;52.044;4.582;2023-04-08T03:49:22;77769.28;;;-144.37;100.00
36258;BME280;22294;52.044;4.582;2023-04-08T03:51:48;77773.38;;;-144.37;100.00
36258;BME280;22294;52.044;4.582;2023-04-08T03:54:14;77771.31;;;-144.37;100.00
36258;BME280;22294;52.044;4.582;2023-04-08T03:56:39;77793.81;;;-144.37;100.00
36258;BME280;22294;52.044;4.582;2023-04-08T03:59:05;77797.91;;;-144.37;100.00
36258;BME280;22294;52.044;4.582;2023-04-08T04:01:30;77802.00;;;-144.37;100.00
36258;BME280;22294;52.044;4.582;2023-04-08T04:03:56;77814.28;;;-144.37;100.00
36258;BME280;22294;52.044;4.582;2023-04-08T04:06:21;77849.06;;;-144.37;100.00
36258;BME280;22294;52.044;4.582;2023-04-08T04:08:46;77883.84;;;-144.37;100.00
36258;BME280;22294;52.044;4.582;2023-04-08T04:11:12;77906.34;;;-144.37;100.00
36258;BME280;22294;52.044;4.582;2023-04-08T04:13:37;77916.59;;;-144.37;100.00
36258;BME280;22294;52.044;4.582;2023-04-08T04:16:02;77912.50;;;-144.37;100.00
36258;BME280;22294;52.044;4.582;2023-04-08T04:18:27;77920.69;;;-144.37;100.00
36258;BME280;22294;52.044;4.582;2023-04-08T04:20:52;77914.53;;;-144.37;100.00
36258;BME280;22294;52.044;4.582;2023-04-08T04:23:18;77924.78;;;-144.37;100.00
36258;BME280;22294;52.044;4.582;2023-04-08T04:25:43;77924.78;;;-144.37;100.00
36258;BME280;22294;52.044;4.582;2023-04-08T04:28:08;77928.88;;;-144.37;100.00
36258;BME280;22294;52.044;4.582;2023-04-08T04:30:37;77918.63;;;-144.37;100.00
36258;BME280;22294;52.044;4.582;2023-04-08T04:33:03;77935.00;;;-144.37;100.00
36258;BME280;22294;52.044;4.582;2023-04-08T04:35:28;77932.97;;;-144.37;100.00
36258;BME280;22294;52.044;4.582;2023-04-08T04:37:53;77941.16;;;-144.37;100.00
36258;BME280;22294;52.044;4.582;2023-04-08T04:40:18;77951.38;;;-144.37;100.00
36258;BME280;22294;52.044;4.582;2023-04-08T04:42:44;77949.31;;;-144.37;100.00
36258;BME280;22294;52.044;4.582;2023-04-08T04:45:09;77945.22;;;-144.37;100.00
36258;BME280;22294;52.044;4.582;2023-04-08T04:47:34;77949.31;;;-144.37;100.00
36258;BME280;22294;52.044;4.582;2023-04-08T04:49:59;77945.22;;;-144.37;100.00
36258;BME280;22294;52.044;4.582;2023-04-08T04:52:25;77949.31;;;-144.37;100.00
36258;BME280;22294;52.044;4.582;2023-04-08T04:54:50;77941.16;;;-144.37;100.00
36258;BME280;22294;52.044;4.582;2023-04-08T04:57:15;77937.06;;;-144.37;100.00
36258;BME280;22294;52.044;4.582;2023-04-08T04:59:41;77935.00;;;-144.37;100.00
36258;BME280;22294;52.044;4.582;2023-04-08T05:02:06;77918.63;;;-144.37;100.00
36258;BME280;22294;52.044;4.582;2023-04-08T05:04:31;77945.22;;;-144.37;100.00
36258;BME280;22294;52.044;4.582;2023-04-08T05:06:57;77935.00;;;-144.37;100.00
36258;BME280;22294;52.044;4.582;2023-04-08T05:09:23;77949.31;;;-144.37;100.00
36258;BME280;22294;52.044;4.582;2023-04-08T05:11:48;77951.38;;;-144.37;100.00
36258;BME280;22294;52.044;4.582;2023-04-08T05:14:13;77943.19;;;-144.37;100.00
36258;BME280;22294;52.044;4.582;2023-04-08T05:16:38;77953.41;;;-144.37;100.00
36258;BME280;22294;52.044;4.582;2023-04-08T05:19:03;77955.47;;;-144.37;100.00
36258;BME280;22294;52.044;4.582;2023-04-08T05:21:29;77951.38;;;-144.37;100.00
36258;BME280;22294;52.044;4.582;2023-04-08T05:23:54;77945.22;;;-144.37;100.00
36258;BME280;22294;52.044;4.582;2023-04-08T05:26:20;77939.09;;;-144.37;100.00
36258;BME280;22294;52.044;4.582;2023-04-08T05:28:48;77967.75;;;-144.37;100.00
36258;BME280;22294;52.044;4.582;2023-04-08T05:31:16;77977.97;;;-144.37;100.00
36258;BME280;22294;52.044;4.582;2023-04-08T05:33:42;77980.03;;;-144.37;100.00
36258;BME280;22294;52.044;4.582;2023-04-08T05:36:07;77992.28;;;-144.37;100.00
36258;BME280;22294;52.044;4.582;2023-04-08T05:38:32;77990.25;;;-144.37;100.00
36258;BME280;22294;52.044;4.582;2023-04-08T05:40:58;78004.56;;;-144.37;100.00
36258;BME280;22294;52.044;4.582;2023-04-08T05:43:23;78012.75;;;-144.37;100.00
36258;BME280;22294;52.044;4.582;2023-04-08T05:45:48;77992.28;;;-144.37;100.00
36258;BME280;22294;52.044;4.582;2023-04-08T05:48:14;77975.94;;;-144.37;100.00
36258;BME280;22294;52.044;4.582;2023-04-08T05:50:39;77984.09;;;-144.37;100.00
36258;BME280;22294;52.044;4.582;2023-04-08T05:53:04;77986.16;;;-144.37;100.00
36258;BME280;22294;52.044;4.582;2023-04-08T05:55:29;77977.97;;;-144.37;100.00
36258;BME280;22294;52.044;4.582;2023-04-08T05:57:55;77988.19;;;-144.37;100.00
36258;BME280;22294;52.044;4.582;2023-04-08T06:00:20;77990.25;;;-144.37;100.00
36258;BME280;22294;52.044;4.582;2023-04-08T06:02:46;78000.47;;;-144.37;100.00
36258;BME280;22294;52.044;4.582;2023-04-08T06:05:11;78010.72;;;-144.37;100.00
36258;BME280;22294;52.044;4.582;2023-04-08T06:07:36;78020.94;;;-144.37;100.00
36258;BME280;22294;52.044;4.582;2023-04-08T06:10:01;78041.41;;;-144.37;100.00
36258;BME280;22294;52.044;4.582;2023-04-08T06:12:29;78018.91;;;-144.37;100.00
36258;BME280;22294;52.044;4.582;2023-04-08T06:14:55;78010.72;;;-144.37;100.00
36258;BME280;22294;52.044;4.582;2023-04-08T06:17:20;78002.53;;;-144.37;100.00
36258;BME280;22294;52.044;4.582;2023-04-08T06:19:45;78000.47;;;-144.37;100.00
36258;BME280;22294;52.044;4.582;2023-04-08T06:22:11;77975.94;;;-144.37;100.00
36258;BME280;22294;52.044;4.582;2023-04-08T06:24:36;77967.75;;;-144.37;100.00
36258;BME280;22294;52.044;4.582;2023-04-08T06:27:01;77963.66;;;-144.37;100.00
36258;BME280;22294;52.044;4.582;2023-04-08T06:29:27;77953.41;;;-144.37;100.00
36258;BME280;22294;52.044;4.582;2023-04-08T06:31:53;77937.06;;;-144.37;100.00
36258;BME280;22294;52.044;4.582;2023-04-08T06:34:20;77935.00;;;-144.37;100.00
36258;BME280;22294;52.044;4.582;2023-04-08T06:36:45;77930.91;;;-144.37;100.00
36258;BME280;22294;52.044;4.582;2023-04-08T06:39:10;77930.91;;;-144.37;100.00
36258;BME280;22294;52.044;4.582;2023-04-08T06:41:37;77920.69;;;-144.37;100.00
36258;BME280;22294;52.044;4.582;2023-04-08T06:44:02;77914.53;;;-144.37;100.00
36258;BME280;22294;52.044;4.582;2023-04-08T06:46:28;77900.22;;;-144.37;100.00
36258;BME280;22294;52.044;4.582;2023-04-08T06:48:53;77898.19;;;-144.37;100.00
36258;BME280;22294;52.044;4.582;2023-04-08T06:51:18;77887.94;;;-144.37;100.00
36258;BME280;22294;52.044;4.582;2023-04-08T06:53:43;77883.84;;;-144.37;100.00
36258;BME280;22294;52.044;4.582;2023-04-08T06:56:08;77896.13;;;-144.37;100.00
36258;BME280;22294;52.044;4.582;2023-04-08T06:58:34;77890.00;;;-144.37;100.00
36258;BME280;22294;52.044;4.582;2023-04-08T07:00:59;77885.91;;;-144.37;100.00
36258;BME280;22294;52.044;4.582;2023-04-08T07:03:25;77894.09;;;-144.37;100.00
36258;BME280;22294;52.044;4.582;2023-04-08T07:05:51;77906.34;;;-144.37;100.00
36258;BME280;22294;52.044;4.582;2023-04-08T07:08:16;77908.41;;;-144.37;100.00
36258;BME280;22294;52.044;4.582;2023-04-08T07:10:41;77904.31;;;-144.37;100.00
36258;BME280;22294;52.044;4.582;2023-04-08T07:13:07;77902.25;;;-144.37;100.00
36258;BME280;22294;52.044;4.582;2023-04-08T07:15:32;77916.59;;;-144.37;100.00
36258;BME280;22294;52.044;4.582;2023-04-08T07:17:57;77947.28;;;-144.37;100.00
36258;BME280;22294;52.044;4.582;2023-04-08T07:20:23;77969.78;;;-144.37;100.00
36258;BME280;22294;52.044;4.582;2023-04-08T07:22:49;77965.69;;;-144.37;100.00
36258;BME280;22294;52.044;4.582;2023-04-08T07:25:15;77969.78;;;-144.37;100.00
36258;BME280;22294;52.044;4.582;2023-04-08T07:27:40;77959.56;;;-144.37;100.00
36258;BME280;22294;52.044;4.582;2023-04-08T07:30:05;77945.22;;;-144.37;100.00
36258;BME280;22294;52.044;4.582;2023-04-08T07:32:31;77941.16;;;-144.37;100.00
36258;BME280;22294;52.044;4.582;2023-04-08T07:34:57;77953.41;;;-144.37;100.00
36258;BME280;22294;52.044;4.582;2023-04-08T07:37:22;77957.50;;;-144.37;100.00
36258;BME280;22294;52.044;4.582;2023-04-08T07:39:48;77953.41;;;-144.37;100.00
36258;BME280;22294;52.044;4.582;2023-04-08T07:42:13;77951.38;;;-144.37;100.00
36258;BME280;22294;52.044;4.582;2023-04-08T07:44:38;77967.75;;;-144.37;100.00
36258;BME280;22294;52.044;4.582;2023-04-08T07:47:03;77990.25;;;-144.37;100.00
36258;BME280;22294;52.044;4.582;2023-04-08T07:49:28;78006.63;;;-144.37;100.00
36258;BME280;22294;52.044;4.582;2023-04-08T07:51:53;77996.38;;;-144.37;100.00
36258;BME280;22294;52.044;4.582;2023-04-08T07:54:19;78010.72;;;-144.37;100.00
36258;BME280;22294;52.044;4.582;2023-04-08T07:56:45;78041.41;;;-144.37;100.00
36258;BME280;22294;52.044;4.582;2023-04-08T07:59:10;78057.78;;;-144.37;100.00
36258;BME280;22294;52.044;4.582;2023-04-08T08:01:36;78039.34;;;-144.37;100.00
36258;BME280;22294;52.044;4.582;2023-04-08T08:04:01;78016.84;;;-144.37;100.00
36258;BME280;22294;52.044;4.582;2023-04-08T08:06:27;77996.38;;;-144.37;100.00
36258;BME280;22294;52.044;4.582;2023-04-08T08:08:52;77986.16;;;-144.37;100.00
36258;BME280;22294;52.044;4.582;2023-04-08T08:11:17;77984.09;;;-144.37;100.00
36258;BME280;22294;52.044;4.582;2023-04-08T08:13:44;77992.28;;;-144.37;100.00
36258;BME280;22294;52.044;4.582;2023-04-08T08:16:09;78012.75;;;-144.37;100.00
36258;BME280;22294;52.044;4.582;2023-04-08T08:18:35;78012.75;;;-144.37;100.00
36258;BME280;22294;52.044;4.582;2023-04-08T08:21:01;78002.53;;;-144.37;100.00
36258;BME280;22294;52.044;4.582;2023-04-08T08:23:26;77973.88;;;-144.37;100.00
36258;BME280;22294;52.044;4.582;2023-04-08T08:25:58;77965.69;;;-144.37;100.00
36258;BME280;22294;52.044;4.582;2023-04-08T08:28:23;77959.56;;;-144.37;100.00
36258;BME280;22294;52.044;4.582;2023-04-08T08:30:48;77951.38;;;-144.37;100.00
36258;BME280;22294;52.044;4.582;2023-04-08T08:33:13;77955.47;;;-144.37;100.00
36258;BME280;22294;52.044;4.582;2023-04-08T08:35:39;77930.91;;;-144.37;100.00
36258;BME280;22294;52.044;4.582;2023-04-08T08:38:04;77928.88;;;-144.37;100.00
36258;BME280;22294;52.044;4.582;2023-04-08T08:40:29;77930.91;;;-144.37;100.00
36258;BME280;22294;52.044;4.582;2023-04-08T08:42:55;77908.41;;;-144.37;100.00
36258;BME280;22294;52.044;4.582;2023-04-08T08:45:23;77898.19;;;-144.37;100.00
36258;BME280;22294;52.044;4.582;2023-04-08T08:47:48;77900.22;;;-144.37;100.00
36258;BME280;22294;52.044;4.582;2023-04-08T08:50:13;77922.72;;;-144.37;100.00
36258;BME280;22294;52.044;4.582;2023-04-08T08:52:46;77912.50;;;-144.37;100.00
36258;BME280;22294;52.044;4.582;2023-04-08T08:55:11;77908.41;;;-144.37;100.00
36258;BME280;22294;52.044;4.582;2023-04-08T08:57:37;77914.53;;;-144.37;100.00
36258;BME280;22294;52.044;4.582;2023-04-08T09:00:02;77914.53;;;-144.37;100.00
36258;BME280;22294;52.044;4.582;2023-04-08T09:02:28;77887.94;;;-144.37;100.00
36258;BME280;22294;52.044;4.582;2023-04-08T09:04:56;77877.72;;;-144.37;100.00
36258;BME280;22294;52.044;4.582;2023-04-08T09:07:22;77883.84;;;-144.37;100.00
36258;BME280;22294;52.044;4.582;2023-04-08T09:09:49;77920.69;;;-144.37;100.00
36258;BME280;22294;52.044;4.582;2023-04-08T09:12:14;77896.13;;;-144.37;100.00
36258;BME280;22294;52.044;4.582;2023-04-08T09:14:39;77875.66;;;-144.37;100.00
36258;BME280;22294;52.044;4.582;2023-04-08T09:17:05;77863.38;;;-144.37;100.00
36258;BME280;22294;52.044;4.582;2023-04-08T09:19:30;77834.75;;;-144.37;100.00
36258;BME280;22294;52.044;4.582;2023-04-08T09:22:05;77814.28;;;-144.37;100.00
36258;BME280;22294;52.044;4.582;2023-04-08T09:24:32;77812.25;;;-144.37;100.00
36258;BME280;22294;52.044;4.582;2023-04-08T09:26:57;77783.59;;;-144.37;100.00
36258;BME280;22294;52.044;4.582;2023-04-08T09:29:24;77763.13;;;-144.37;100.00
36258;BME280;22294;52.044;4.582;2023-04-08T09:31:53;77759.03;;;-144.37;100.00
36258;BME280;22294;52.044;4.582;2023-04-08T09:34:18;77765.19;;;-144.37;100.00
36258;BME280;22294;52.044;4.582;2023-04-08T09:36:45;77752.91;;;-144.37;100.00
36258;BME280;22294;52.044;4.582;2023-04-08T09:39:13;77732.44;;;-144.37;100.00
36258;BME280;22294;52.044;4.582;2023-04-08T09:41:38;77736.53;;;-144.37;100.00
36258;BME280;22294;52.044;4.582;2023-04-08T09:44:04;77705.84;;;-144.37;100.00
36258;BME280;22294;52.044;4.582;2023-04-08T09:46:38;77695.63;;;-144.37;100.00
36258;BME280;22294;52.044;4.582;2023-04-08T09:49:37;77691.53;;;-144.37;98.34
36258;BME280;22294;52.044;4.582;2023-04-08T09:54:44;77687.44;;;-144.37;96.14
36258;BME280;22294;52.044;4.582;2023-04-08T09:57:15;77673.13;;;-144.37;96.10
36258;BME280;22294;52.044;4.582;2023-04-08T09:59:44;77679.25;;;-144.37;93.80
36258;BME280;22294;52.044;4.582;2023-04-08T10:02:12;77671.06;;;-144.37;94.41
36258;BME280;22294;52.044;4.582;2023-04-08T10:04:40;77644.47;;;-144.37;95.54
36258;BME280;22294;52.044;4.582;2023-04-08T10:07:09;77648.56;;;-144.37;93.45
36258;BME280;22294;52.044;4.582;2023-04-08T10:09:35;77632.19;;;-144.37;92.87
36258;BME280;22294;52.044;4.582;2023-04-08T10:12:02;77611.75;;;-144.37;91.91
36258;BME280;22294;52.044;4.582;2023-04-08T10:14:28;77589.22;;;-144.37;92.93
36258;BME280;22294;52.044;4.582;2023-04-08T10:17:23;77581.06;;;-144.37;90.64
36258;BME280;22294;52.044;4.582;2023-04-08T10:19:48;77585.13;;;-144.37;89.68
36258;BME280;22294;52.044;4.582;2023-04-08T10:22:55;77572.88;;;-144.37;90.51
36258;BME280;22294;52.044;4.582;2023-04-08T10:27:42;77544.22;;;-144.37;84.54
36258;BME280;22294;52.044;4.582;2023-04-08T10:32:51;77509.44;;;-144.37;80.95
36258;BME280;22294;52.044;4.582;2023-04-08T10:35:16;77491.03;;;-144.37;79.02
36258;BME280;22294;52.044;4.582;2023-04-08T10:37:41;77476.72;;;-144.37;79.01
36258;BME280;22294;52.044;4.582;2023-04-08T10:40:15;77484.91;;;-144.37;76.13
36258;BME280;22294;52.044;4.582;2023-04-08T10:42:42;77470.56;;;-144.37;74.39
36258;BME280;22294;52.044;4.582;2023-04-08T10:45:07;77443.97;;;-144.37;75.85
36258;BME280;22294;52.044;4.582;2023-04-08T10:47:33;77443.97;;;-144.37;75.17
36258;BME280;22294;52.044;4.582;2023-04-08T10:49:58;77462.38;;;-144.37;73.95
36258;BME280;22294;52.044;4.582;2023-04-08T10:52:23;77437.84;;;-144.37;72.80
36258;BME280;22294;52.044;4.582;2023-04-08T10:54:51;77435.78;;;-144.37;69.63
36258;BME280;22294;52.044;4.582;2023-04-08T10:57:22;77431.69;;;-144.37;68.19
36258;BME280;22294;52.044;4.582;2023-04-08T10:59:48;77419.44;;;-144.37;69.19
36258;BME280;22294;52.044;4.582;2023-04-08T11:02:13;77417.38;;;-144.37;69.55
36258;BME280;22294;52.044;4.582;2023-04-08T11:04:42;77419.44;;;-144.37;68.49
36258;BME280;22294;52.044;4.582;2023-04-08T11:07:08;77407.16;;;-144.37;69.39
36258;BME280;22294;52.044;4.582;2023-04-08T11:09:33;77394.88;;;-144.37;68.26
36258;BME280;22294;52.044;4.582;2023-04-08T11:11:59;77376.47;;;-144.37;69.17
36258;BME280;22294;52.044;4.582;2023-04-08T11:14:25;77372.38;;;-144.37;66.23
36258;BME280;22294;52.044;4.582;2023-04-08T11:16:51;77372.38;;;-144.37;65.17
36258;BME280;22294;52.044;4.582;2023-04-08T11:19:17;77364.19;;;-144.37;61.28
36258;BME280;22294;52.044;4.582;2023-04-08T11:21:42;77356.00;;;-144.37;61.21
36258;BME280;22294;52.044;4.582;2023-04-08T11:24:10;77364.19;;;-144.37;57.76
36258;BME280;22294;52.044;4.582;2023-04-08T11:26:36;77347.81;;;-144.37;61.71
36258;BME280;22294;52.044;4.582;2023-04-08T11:29:01;77343.72;;;-144.37;62.05
36258;BME280;22294;52.044;4.582;2023-04-08T11:31:27;77351.91;;;-144.37;60.92
36258;BME280;22294;52.044;4.582;2023-04-08T11:33:53;77323.28;;;-144.37;62.51
36258;BME280;22294;52.044;4.582;2023-04-08T11:36:20;77329.41;;;-144.37;58.34
36258;BME280;22294;52.044;4.582;2023-04-08T11:38:45;77315.09;;;-144.37;60.17
36258;BME280;22294;52.044;4.582;2023-04-08T11:41:11;77313.03;;;-144.37;58.33
36258;BME280;22294;52.044;4.582;2023-04-08T11:43:37;77317.13;;;-144.37;57.09
36258;BME280;22294;52.044;4.582;2023-04-08T11:46:09;77329.41;;;-144.37;57.36
36258;BME280;22294;52.044;4.582;2023-04-08T11:48:34;77300.78;;;-144.37;53.08
36258;BME280;22294;52.044;4.582;2023-04-08T11:51:07;77286.44;;;-144.37;53.21
36258;BME280;22294;52.044;4.582;2023-04-08T11:53:36;77302.81;;;-144.37;51.22
36258;BME280;22294;52.044;4.582;2023-04-08T11:56:20;77278.28;;;-144.37;51.81
36258;BME280;22294;52.044;4.582;2023-04-08T11:58:46;77282.38;;;-144.37;49.71
36258;BME280;22294;52.044;4.582;2023-04-08T12:01:12;77280.31;;;-144.37;49.37
36258;BME280;22294;52.044;4.582;2023-04-08T12:03:37;77296.69;;;-144.37;49.12
36258;BME280;22294;52.044;4.582;2023-04-08T12:06:02;77292.59;;;-144.37;48.77
36258;BME280;22294;52.044;4.582;2023-04-08T12:08:29;77292.59;;;-144.37;46.90
36258;BME280;22294;52.044;4.582;2023-04-08T12:10:54;77257.81;;;-144.37;48.84
36258;BME280;22294;52.044;4.582;2023-04-08T12:13:19;77225.09;;;-144.37;47.78
36258;BME280;22294;52.044;4.582;2023-04-08T12:15:44;77237.34;;;-144.37;46.76
36258;BME280;22294;52.044;4.582;2023-04-08T12:18:10;77229.19;;;-144.37;45.72
36258;BME280;22294;52.044;4.582;2023-04-08T12:20:35;77235.31;;;-144.37;46.91
36258;BME280;22294;52.044;4.582;2023-04-08T12:23:00;77227.13;;;-144.37;46.48
36258;BME280;22294;52.044;4.582;2023-04-08T12:25:25;77223.03;;;-144.37;47.11
36258;BME280;22294;52.044;4.582;2023-04-08T12:27:51;77218.94;;;-144.37;47.66
36258;BME280;22294;52.044;4.582;2023-04-08T12:30:17;77208.72;;;-144.37;45.60
36258;BME280;22294;52.044;4.582;2023-04-08T12:32:42;77196.44;;;-144.37;47.09
36258;BME280;22294;52.044;4.582;2023-04-08T12:35:09;77180.06;;;-144.37;46.77
36258;BME280;22294;52.044;4.582;2023-04-08T12:37:36;77206.66;;;-144.37;43.66
36258;BME280;22294;52.044;4.582;2023-04-08T12:40:01;77198.50;;;-144.37;46.84
36258;BME280;22294;52.044;4.582;2023-04-08T12:42:26;77206.66;;;-144.37;44.92